sensor_id;sensor_type;location;lat;lon;timestamp;pressure;altitude;pressure_sealevel;temperature;humidity
21863;BME280;11096;51.338;12.524;2023-07-24T00:01:48;99273.94;;;22.21;56.10
21863;BME280;11096;51.338;12.524;2023-07-24T00:04:14;99273.97;;;22.28;55.35
21863;BME280;11096;51.338;12.524;2023-07-24T00:06:39;99277.63;;;22.20;55.71
21863;BME280;11096;51.338;12.524;2023-07-24T00:09:04;99268.84;;;22.66;55.69
21863;BME280;11096;51.338;12.524;2023-07-24T00:11:30;99263.56;;;22.26;55.89
21863;BME280;11096;51.338;12.524;2023-07-24T00:13:55;99260.09;;;22.13;56.29
21863;BME280;11096;51.338;12.524;2023-07-24T00:16:20;99266.38;;;22.12;56.40
21863;BME280;11096;51.338;12.524;2023-07-24T00:18:46;99260.06;;;22.06;58.04
21863;BME280;11096;51.338;12.524;2023-07-24T00:21:11;99253.53;;;22.02;56.15
21863;BME280;11096;51.338;12.524;2023-07-24T00:23:38;99251.28;;;21.92;56.55
21863;BME280;11096;51.338;12.524;2023-07-24T00:26:04;99250.44;;;21.72;56.47
21863;BME280;11096;51.338;12.524;2023-07-24T00:28:29;99245.56;;;21.69;57.60
21863;BME280;11096;51.338;12.524;2023-07-24T00:30:55;99236.81;;;21.75;57.59
21863;BME280;11096;51.338;12.524;2023-07-24T00:33:21;99242.72;;;21.63;57.53
21863;BME280;11096;51.338;12.524;2023-07-24T00:35:46;99239.03;;;21.64;57.41
21863;BME280;11096;51.338;12.524;2023-07-24T00:38:12;99233.53;;;21.59;57.84
21863;BME280;11096;51.338;12.524;2023-07-24T00:40:37;99235.56;;;21.57;58.80
21863;BME280;11096;51.338;12.524;2023-07-24T00:43:03;99234.78;;;21.63;59.13
21863;BME280;11096;51.338;12.524;2023-07-24T00:45:28;99235.84;;;22.02;58.91
21863;BME280;11096;51.338;12.524;2023-07-24T00:47:54;99233.22;;;22.22;57.08
21863;BME280;11096;51.338;12.524;2023-07-24T00:50:20;99239.72;;;22.06;56.75
21863;BME280;11096;51.338;12.524;2023-07-24T00:52:45;99238.81;;;21.59;57.59
21863;BME280;11096;51.338;12.524;2023-07-24T00:55:13;99241.88;;;21.56;58.64
21863;BME280;11096;51.338;12.524;2023-07-24T00:57:40;99242.09;;;21.75;58.41
21863;BME280;11096;51.338;12.524;2023-07-24T01:00:06;99243.34;;;21.79;57.77
21863;BME280;11096;51.338;12.524;2023-07-24T01:02:32;99239.81;;;21.52;58.25
21863;BME280;11096;51.338;12.524;2023-07-24T01:04:58;99233.69;;;21.44;59.13
21863;BME280;11096;51.338;12.524;2023-07-24T01:07:24;99238.75;;;21.39;59.21
21863;BME280;11096;51.338;12.524;2023-07-24T01:09:49;99236.88;;;21.33;59.88
21863;BME280;11096;51.338;12.524;2023-07-24T01:12:23;99226.66;;;21.23;60.45
21863;BME280;11096;51.338;12.524;2023-07-24T01:15:01;99226.66;;;21.17;61.04
21863;BME280;11096;51.338;12.524;2023-07-24T01:17:30;99213.84;;;21.20;61.61
21863;BME280;11096;51.338;12.524;2023-07-24T01:19:58;99213.84;;;21.20;62.33
21863;BME280;11096;51.338;12.524;2023-07-24T01:25:18;99210.19;;;21.21;62.27
21863;BME280;11096;51.338;12.524;2023-07-24T01:27:48;99212.03;;;21.21;62.02
21863;BME280;11096;51.338;12.524;2023-07-24T01:30:19;99214.44;;;21.16;62.34
21863;BME280;11096;51.338;12.524;2023-07-24T01:32:44;99213.81;;;21.07;61.92
21863;BME280;11096;51.338;12.524;2023-07-24T01:35:10;99210.53;;;21.05;61.97
21863;BME280;11096;51.338;12.524;2023-07-24T01:37:37;99206.47;;;21.02;62.01
21863;BME280;11096;51.338;12.524;2023-07-24T01:40:06;99208.31;;;21.02;62.12
21863;BME280;11096;51.338;12.524;2023-07-24T01:42:32;99207.88;;;20.98;62.24
21863;BME280;11096;51.338;12.524;2023-07-24T01:44:58;99205.25;;;21.05;62.19
21863;BME280;11096;51.338;12.524;2023-07-24T01:47:23;99209.72;;;21.05;62.61
21863;BME280;11096;51.338;12.524;2023-07-24T01:49:49;99212.22;;;21.94;60.14
21863;BME280;11096;51.338;12.524;2023-07-24T01:52:15;99200.63;;;21.69;61.08
21863;BME280;11096;51.338;12.524;2023-07-24T01:54:40;99209.00;;;21.24;62.22
21863;BME280;11096;51.338;12.524;2023-07-24T01:57:06;99199.84;;;21.20;62.45
21863;BME280;11096;51.338;12.524;2023-07-24T01:59:31;99197.97;;;21.07;62.81
21863;BME280;11096;51.338;12.524;2023-07-24T02:01:56;99195.88;;;20.96;63.02
21863;BME280;11096;51.338;12.524;2023-07-24T02:04:22;99197.88;;;20.87;63.43
21863;BME280;11096;51.338;12.524;2023-07-24T02:06:48;99194.16;;;20.82;63.42
21863;BME280;11096;51.338;12.524;2023-07-24T02:09:14;99201.47;;;20.79;63.63
21863;BME280;11096;51.338;12.524;2023-07-24T02:11:40;99201.47;;;20.79;63.49
21863;BME280;11096;51.338;12.524;2023-07-24T02:14:05;99202.44;;;21.13;63.36
21863;BME280;11096;51.338;12.524;2023-07-24T02:16:31;99202.53;;;20.92;62.64
21863;BME280;11096;51.338;12.524;2023-07-24T02:18:56;99200.47;;;20.80;63.18
21863;BME280;11096;51.338;12.524;2023-07-24T02:21:22;99211.03;;;20.80;62.93
21863;BME280;11096;51.338;12.524;2023-07-24T02:26:12;99210.41;;;20.78;62.83
21863;BME280;11096;51.338;12.524;2023-07-24T02:28:38;99206.50;;;20.74;63.24
21863;BME280;11096;51.338;12.524;2023-07-24T02:31:03;99199.03;;;20.78;62.98
21863;BME280;11096;51.338;12.524;2023-07-24T02:33:28;99203.63;;;20.69;63.58
21863;BME280;11096;51.338;12.524;2023-07-24T02:35:54;99201.91;;;20.55;64.00
21863;BME280;11096;51.338;12.524;2023-07-24T02:38:19;99203.94;;;20.53;64.27
21863;BME280;11096;51.338;12.524;2023-07-24T02:40:45;99205.25;;;20.42;64.09
21863;BME280;11096;51.338;12.524;2023-07-24T02:43:10;99208.13;;;20.41;64.44
21863;BME280;11096;51.338;12.524;2023-07-24T02:45:39;99198.66;;;20.25;64.92
21863;BME280;11096;51.338;12.524;2023-07-24T02:48:04;99194.19;;;20.25;65.25
21863;BME280;11096;51.338;12.524;2023-07-24T02:50:30;99188.31;;;20.23;65.02
21863;BME280;11096;51.338;12.524;2023-07-24T02:52:56;99177.66;;;20.38;64.23
21863;BME280;11096;51.338;12.524;2023-07-24T02:55:21;99184.00;;;20.22;64.60
21863;BME280;11096;51.338;12.524;2023-07-24T02:57:46;99182.63;;;20.26;64.65
21863;BME280;11096;51.338;12.524;2023-07-24T03:00:12;99178.31;;;20.19;64.58
21863;BME280;11096;51.338;12.524;2023-07-24T03:02:38;99184.28;;;20.06;64.96
21863;BME280;11096;51.338;12.524;2023-07-24T03:05:04;99179.69;;;20.14;64.48
21863;BME280;11096;51.338;12.524;2023-07-24T03:07:29;99176.66;;;20.17;64.30
21863;BME280;11096;51.338;12.524;2023-07-24T03:09:55;99182.66;;;20.05;64.62
21863;BME280;11096;51.338;12.524;2023-07-24T03:12:20;99190.34;;;20.00;64.95
21863;BME280;11096;51.338;12.524;2023-07-24T03:14:47;99188.72;;;19.99;65.44
21863;BME280;11096;51.338;12.524;2023-07-24T03:17:13;99190.22;;;19.86;65.62
21863;BME280;11096;51.338;12.524;2023-07-24T03:19:38;99180.88;;;19.84;65.86
21863;BME280;11096;51.338;12.524;2023-07-24T03:22:03;99179.16;;;19.76;65.95
21863;BME280;11096;51.338;12.524;2023-07-24T03:24:29;99176.53;;;19.76;66.29
21863;BME280;11096;51.338;12.524;2023-07-24T03:26:54;99179.53;;;19.73;66.22
21863;BME280;11096;51.338;12.524;2023-07-24T03:29:19;99182.03;;;19.81;66.05
21863;BME280;11096;51.338;12.524;2023-07-24T03:31:45;99179.22;;;19.83;66.35
21863;BME280;11096;51.338;12.524;2023-07-24T03:34:10;99180.41;;;19.80;66.49
21863;BME280;11096;51.338;12.524;2023-07-24T03:36:35;99175.47;;;19.70;67.06
21863;BME280;11096;51.338;12.524;2023-07-24T03:39:02;99173.63;;;19.71;66.98
21863;BME280;11096;51.338;12.524;2023-07-24T03:41:27;99179.38;;;19.75;67.25
21863;BME280;11096;51.338;12.524;2023-07-24T03:43:53;99171.47;;;19.75;67.28
21863;BME280;11096;51.338;12.524;2023-07-24T03:46:18;99171.63;;;19.73;67.76
21863;BME280;11096;51.338;12.524;2023-07-24T03:48:44;99162.97;;;19.79;67.99
21863;BME280;11096;51.338;12.524;2023-07-24T03:51:09;99160.53;;;19.78;67.00
21863;BME280;11096;51.338;12.524;2023-07-24T03:53:34;99161.03;;;19.88;65.78
21863;BME280;11096;51.338;12.524;2023-07-24T03:56:00;99155.00;;;19.94;64.87
21863;BME280;11096;51.338;12.524;2023-07-24T03:58:25;99156.69;;;20.02;63.71
21863;BME280;11096;51.338;12.524;2023-07-24T04:00:50;99155.47;;;20.04;62.87
21863;BME280;11096;51.338;12.524;2023-07-24T04:03:16;99156.47;;;20.03;62.64
21863;BME280;11096;51.338;12.524;2023-07-24T04:05:42;99158.69;;;20.00;62.20
21863;BME280;11096;51.338;12.524;2023-07-24T04:08:07;99149.41;;;20.04;61.75
21863;BME280;11096;51.338;12.524;2023-07-24T04:10:33;99152.50;;;20.14;61.61
21863;BME280;11096;51.338;12.524;2023-07-24T04:12:58;99157.63;;;20.22;61.00
21863;BME280;11096;51.338;12.524;2023-07-24T04:15:23;99157.06;;;20.27;60.57
21863;BME280;11096;51.338;12.524;2023-07-24T04:17:49;99151.59;;;20.28;60.09
21863;BME280;11096;51.338;12.524;2023-07-24T04:20:14;99149.63;;;20.37;59.54
21863;BME280;11096;51.338;12.524;2023-07-24T04:22:40;99152.06;;;20.38;59.38
21863;BME280;11096;51.338;12.524;2023-07-24T04:25:05;99149.44;;;20.38;58.89
21863;BME280;11096;51.338;12.524;2023-07-24T04:27:31;99141.97;;;20.49;59.17
21863;BME280;11096;51.338;12.524;2023-07-24T04:29:56;99152.13;;;20.52;58.67
21863;BME280;11096;51.338;12.524;2023-07-24T04:32:22;99139.66;;;20.61;58.50
21863;BME280;11096;51.338;12.524;2023-07-24T04:34:47;99145.81;;;20.81;58.15
21863;BME280;11096;51.338;12.524;2023-07-24T04:37:12;99146.72;;;20.95;57.45
21863;BME280;11096;51.338;12.524;2023-07-24T04:39:38;99134.19;;;21.17;57.23
21863;BME280;11096;51.338;12.524;2023-07-24T04:42:04;99143.34;;;21.28;56.68
21863;BME280;11096;51.338;12.524;2023-07-24T04:44:30;99146.03;;;21.41;56.45
21863;BME280;11096;51.338;12.524;2023-07-24T04:46:57;99141.22;;;21.51;56.34
21863;BME280;11096;51.338;12.524;2023-07-24T04:49:22;99142.41;;;21.55;55.72
21863;BME280;11096;51.338;12.524;2023-07-24T04:51:48;99146.31;;;21.66;55.28
21863;BME280;11096;51.338;12.524;2023-07-24T04:54:13;99138.97;;;21.75;54.63
21863;BME280;11096;51.338;12.524;2023-07-24T04:56:39;99135.34;;;21.76;54.09
21863;BME280;11096;51.338;12.524;2023-07-24T04:59:04;99137.97;;;21.89;53.91
21863;BME280;11096;51.338;12.524;2023-07-24T05:01:29;99123.91;;;21.95;53.52
21863;BME280;11096;51.338;12.524;2023-07-24T05:03:55;99124.94;;;22.01;53.46
21863;BME280;11096;51.338;12.524;2023-07-24T05:06:20;99121.88;;;22.11;53.12
21863;BME280;11096;51.338;12.524;2023-07-24T05:08:46;99120.28;;;22.23;52.88
21863;BME280;11096;51.338;12.524;2023-07-24T05:11:11;99110.69;;;22.22;52.58
21863;BME280;11096;51.338;12.524;2023-07-24T05:13:36;99120.44;;;22.41;52.72
21863;BME280;11096;51.338;12.524;2023-07-24T05:16:02;99118.81;;;22.40;52.29
21863;BME280;11096;51.338;12.524;2023-07-24T05:18:27;99118.34;;;22.57;51.85
21863;BME280;11096;51.338;12.524;2023-07-24T05:20:53;99120.09;;;22.76;51.24
21863;BME280;11096;51.338;12.524;2023-07-24T05:26:42;99118.00;;;23.36;50.05
21863;BME280;11096;51.338;12.524;2023-07-24T05:29:08;99113.75;;;23.61;49.49
21863;BME280;11096;51.338;12.524;2023-07-24T05:31:36;99106.63;;;23.86;48.89
21863;BME280;11096;51.338;12.524;2023-07-24T05:34:02;99109.75;;;24.02;47.94
21863;BME280;11096;51.338;12.524;2023-07-24T05:36:29;99103.44;;;24.21;47.36
21863;BME280;11096;51.338;12.524;2023-07-24T05:38:54;99104.34;;;24.15;46.98
21863;BME280;11096;51.338;12.524;2023-07-24T05:41:19;99102.94;;;24.12;46.70
21863;BME280;11096;51.338;12.524;2023-07-24T05:43:45;99105.34;;;24.14;46.52
21863;BME280;11096;51.338;12.524;2023-07-24T05:55:46;99102.22;;;24.60;45.71
21863;BME280;11096;51.338;12.524;2023-07-24T05:58:11;99098.84;;;24.53;45.45
21863;BME280;11096;51.338;12.524;2023-07-24T06:00:36;99097.09;;;24.47;45.27
21863;BME280;11096;51.338;12.524;2023-07-24T06:03:05;99100.91;;;24.70;45.24
21863;BME280;11096;51.338;12.524;2023-07-24T06:05:30;99096.09;;;24.78;45.00
21863;BME280;11096;51.338;12.524;2023-07-24T06:07:56;99093.59;;;24.83;44.95
21863;BME280;11096;51.338;12.524;2023-07-24T06:10:21;99098.22;;;24.88;44.32
21863;BME280;11096;51.338;12.524;2023-07-24T06:12:46;99098.22;;;24.88;43.97
21863;BME280;11096;51.338;12.524;2023-07-24T06:15:12;99087.88;;;24.98;43.94
21863;BME280;11096;51.338;12.524;2023-07-24T06:17:38;99086.88;;;25.11;44.10
21863;BME280;11096;51.338;12.524;2023-07-24T06:20:04;99077.16;;;25.59;43.13
21863;BME280;11096;51.338;12.524;2023-07-24T06:22:29;99068.63;;;25.80;43.07
21863;BME280;11096;51.338;12.524;2023-07-24T06:24:55;99066.69;;;25.99;42.38
21863;BME280;11096;51.338;12.524;2023-07-24T06:27:20;99060.78;;;26.09;42.22
21863;BME280;11096;51.338;12.524;2023-07-24T06:29:46;99064.38;;;25.91;42.16
21863;BME280;11096;51.338;12.524;2023-07-24T06:32:11;99067.00;;;25.79;42.24
21863;BME280;11096;51.338;12.524;2023-07-24T06:34:36;99066.44;;;25.89;42.04
21863;BME280;11096;51.338;12.524;2023-07-24T06:37:02;99069.69;;;26.03;42.21
21863;BME280;11096;51.338;12.524;2023-07-24T06:39:27;99071.13;;;26.58;41.24
21863;BME280;11096;51.338;12.524;2023-07-24T06:41:54;99074.94;;;26.50;41.07
21863;BME280;11096;51.338;12.524;2023-07-24T06:44:20;99072.56;;;26.37;40.84
21863;BME280;11096;51.338;12.524;2023-07-24T06:46:45;99067.81;;;26.39;40.49
21863;BME280;11096;51.338;12.524;2023-07-24T06:49:11;99059.53;;;26.52;40.88
21863;BME280;11096;51.338;12.524;2023-07-24T06:51:36;99064.28;;;26.50;40.40
21863;BME280;11096;51.338;12.524;2023-07-24T06:54:03;99061.31;;;26.75;40.37
21863;BME280;11096;51.338;12.524;2023-07-24T06:56:28;99059.94;;;26.72;40.31
21863;BME280;11096;51.338;12.524;2023-07-24T06:58:54;99060.91;;;26.66;39.42
21863;BME280;11096;51.338;12.524;2023-07-24T07:01:19;99065.38;;;26.37;40.21
21863;BME280;11096;51.338;12.524;2023-07-24T07:03:45;99065.34;;;26.49;40.24
21863;BME280;11096;51.338;12.524;2023-07-24T07:06:10;99066.72;;;26.92;39.47
21863;BME280;11096;51.338;12.524;2023-07-24T07:08:37;99059.94;;;27.30;39.31
21863;BME280;11096;51.338;12.524;2023-07-24T07:11:02;99057.81;;;27.32;39.47
21863;BME280;11096;51.338;12.524;2023-07-24T07:13:28;99041.94;;;28.10;38.34
21863;BME280;11096;51.338;12.524;2023-07-24T07:15:53;99043.88;;;28.14;37.75
21863;BME280;11096;51.338;12.524;2023-07-24T07:18:19;99048.69;;;27.95;37.75
21863;BME280;11096;51.338;12.524;2023-07-24T07:20:48;99055.78;;;28.45;37.42
21863;BME280;11096;51.338;12.524;2023-07-24T07:23:14;99040.66;;;28.56;37.03
21863;BME280;11096;51.338;12.524;2023-07-24T07:25:40;99032.44;;;28.63;37.22
21863;BME280;11096;51.338;12.524;2023-07-24T07:28:05;99035.91;;;28.41;37.24
21863;BME280;11096;51.338;12.524;2023-07-24T07:30:31;99034.78;;;28.37;38.03
21863;BME280;11096;51.338;12.524;2023-07-24T07:32:56;99036.16;;;28.62;38.02
21863;BME280;11096;51.338;12.524;2023-07-24T07:35:22;99038.50;;;27.92;37.63
21863;BME280;11096;51.338;12.524;2023-07-24T07:37:47;99034.34;;;28.01;38.34
21863;BME280;11096;51.338;12.524;2023-07-24T07:40:13;99033.38;;;28.52;37.02
21863;BME280;11096;51.338;12.524;2023-07-24T07:42:38;99020.28;;;29.04;36.12
21863;BME280;11096;51.338;12.524;2023-07-24T07:45:04;99015.25;;;29.08;35.84
21863;BME280;11096;51.338;12.524;2023-07-24T07:47:29;99013.47;;;28.64;36.19
21863;BME280;11096;51.338;12.524;2023-07-24T07:49:55;99023.31;;;29.13;36.02
21863;BME280;11096;51.338;12.524;2023-07-24T07:52:20;99016.59;;;28.83;35.50
21863;BME280;11096;51.338;12.524;2023-07-24T07:54:50;99019.97;;;29.01;35.94
21863;BME280;11096;51.338;12.524;2023-07-24T07:57:15;99012.13;;;29.21;35.78
21863;BME280;11096;51.338;12.524;2023-07-24T07:59:41;99018.38;;;29.00;35.61
21863;BME280;11096;51.338;12.524;2023-07-24T08:02:07;99004.38;;;29.20;35.47
21863;BME280;11096;51.338;12.524;2023-07-24T08:04:33;99005.44;;;28.64;36.45
21863;BME280;11096;51.338;12.524;2023-07-24T08:06:58;99004.78;;;28.79;36.48
21863;BME280;11096;51.338;12.524;2023-07-24T08:09:24;98998.41;;;29.07;36.07
21863;BME280;11096;51.338;12.524;2023-07-24T08:11:49;99006.56;;;28.96;36.01
21863;BME280;11096;51.338;12.524;2023-07-24T08:14:16;99005.84;;;29.05;35.93
21863;BME280;11096;51.338;12.524;2023-07-24T08:16:41;98998.06;;;29.36;34.70
21863;BME280;11096;51.338;12.524;2023-07-24T08:19:07;98994.03;;;29.01;35.75
21863;BME280;11096;51.338;12.524;2023-07-24T08:21:32;98994.84;;;29.29;35.46
21863;BME280;11096;51.338;12.524;2023-07-24T08:23:58;98998.97;;;29.47;34.93
21863;BME280;11096;51.338;12.524;2023-07-24T08:26:25;99000.63;;;29.58;35.31
21863;BME280;11096;51.338;12.524;2023-07-24T08:28:52;98992.69;;;29.31;35.12
21863;BME280;11096;51.338;12.524;2023-07-24T08:31:17;98993.09;;;29.50;34.75
21863;BME280;11096;51.338;12.524;2023-07-24T08:33:42;98993.13;;;29.55;34.54
21863;BME280;11096;51.338;12.524;2023-07-24T08:36:08;98995.94;;;29.75;35.11
21863;BME280;11096;51.338;12.524;2023-07-24T08:38:35;98995.03;;;29.60;35.34
21863;BME280;11096;51.338;12.524;2023-07-24T08:41:18;98998.63;;;30.28;34.23
21863;BME280;11096;51.338;12.524;2023-07-24T08:43:43;98995.47;;;29.84;34.50
21863;BME280;11096;51.338;12.524;2023-07-24T08:46:09;98981.03;;;29.90;34.78
21863;BME280;11096;51.338;12.524;2023-07-24T08:48:40;98991.78;;;30.00;34.37
21863;BME280;11096;51.338;12.524;2023-07-24T08:51:07;98993.28;;;29.06;35.38
21863;BME280;11096;51.338;12.524;2023-07-24T08:53:33;98984.88;;;29.19;35.36
21863;BME280;11096;51.338;12.524;2023-07-24T08:56:02;99000.69;;;30.16;34.29
21863;BME280;11096;51.338;12.524;2023-07-24T08:58:28;98995.44;;;30.47;33.47
21863;BME280;11096;51.338;12.524;2023-07-24T09:00:53;98995.03;;;30.96;32.64
21863;BME280;11096;51.338;12.524;2023-07-24T09:03:19;98998.50;;;31.22;31.93
21863;BME280;11096;51.338;12.524;2023-07-24T09:05:45;99004.56;;;30.41;32.58
21863;BME280;11096;51.338;12.524;2023-07-24T09:08:11;98990.94;;;31.70;31.48
21863;BME280;11096;51.338;12.524;2023-07-24T09:10:37;98981.84;;;34.40;28.69
21863;BME280;11096;51.338;12.524;2023-07-24T09:13:02;98976.81;;;33.67;28.70
21863;BME280;11096;51.338;12.524;2023-07-24T09:15:38;98969.22;;;34.93;27.40
21863;BME280;11096;51.338;12.524;2023-07-24T09:18:04;98971.88;;;32.42;30.05
21863;BME280;11096;51.338;12.524;2023-07-24T09:20:38;98971.41;;;31.49;31.60
21863;BME280;11096;51.338;12.524;2023-07-24T09:23:03;98967.41;;;30.95;33.09
21863;BME280;11096;51.338;12.524;2023-07-24T09:25:30;98975.44;;;30.85;33.51
21863;BME280;11096;51.338;12.524;2023-07-24T09:27:58;98966.97;;;30.20;34.19
21863;BME280;11096;51.338;12.524;2023-07-24T09:30:23;98975.16;;;31.28;33.22
21863;BME280;11096;51.338;12.524;2023-07-24T09:32:53;98958.25;;;30.86;33.24
21863;BME280;11096;51.338;12.524;2023-07-24T09:35:19;98953.16;;;31.46;32.89
21863;BME280;11096;51.338;12.524;2023-07-24T09:37:46;98948.81;;;31.65;32.32
21863;BME280;11096;51.338;12.524;2023-07-24T09:40:13;98949.50;;;32.91;31.03
21863;BME280;11096;51.338;12.524;2023-07-24T09:42:39;98952.25;;;31.76;31.19
21863;BME280;11096;51.338;12.524;2023-07-24T09:45:06;98957.50;;;32.07;31.04
21863;BME280;11096;51.338;12.524;2023-07-24T09:47:34;98953.53;;;33.76;29.24
21863;BME280;11096;51.338;12.524;2023-07-24T09:50:03;98942.94;;;32.23;29.54
21863;BME280;11096;51.338;12.524;2023-07-24T09:52:30;98955.19;;;31.85;31.01
21863;BME280;11096;51.338;12.524;2023-07-24T09:55:15;98958.03;;;32.64;29.70
21863;BME280;11096;51.338;12.524;2023-07-24T09:57:43;98963.59;;;30.60;32.65
21863;BME280;11096;51.338;12.524;2023-07-24T10:00:11;98956.97;;;29.52;33.98
21863;BME280;11096;51.338;12.524;2023-07-24T10:02:37;98950.34;;;28.90;35.64
21863;BME280;11096;51.338;12.524;2023-07-24T10:05:03;98946.84;;;29.17;35.53
21863;BME280;11096;51.338;12.524;2023-07-24T10:07:28;98939.41;;;29.24;35.73
21863;BME280;11096;51.338;12.524;2023-07-24T10:09:55;98939.03;;;29.53;35.55
21863;BME280;11096;51.338;12.524;2023-07-24T10:12:20;98940.00;;;29.31;35.99
21863;BME280;11096;51.338;12.524;2023-07-24T10:14:46;98931.72;;;30.90;34.53
21863;BME280;11096;51.338;12.524;2023-07-24T10:17:12;98922.84;;;32.89;31.39
21863;BME280;11096;51.338;12.524;2023-07-24T10:19:42;98919.81;;;33.54;30.22
21863;BME280;11096;51.338;12.524;2023-07-24T10:22:17;98908.19;;;33.59;29.60
21863;BME280;11096;51.338;12.524;2023-07-24T10:24:44;98895.81;;;35.65;27.64
21863;BME280;11096;51.338;12.524;2023-07-24T10:27:11;98896.22;;;36.22;27.47
21863;BME280;11096;51.338;12.524;2023-07-24T10:29:37;98898.78;;;35.22;28.11
21863;BME280;11096;51.338;12.524;2023-07-24T10:32:03;98880.13;;;33.84;29.77
21863;BME280;11096;51.338;12.524;2023-07-24T10:34:40;98889.41;;;34.54;28.85
21863;BME280;11096;51.338;12.524;2023-07-24T10:37:09;98886.16;;;33.76;30.52
21863;BME280;11096;51.338;12.524;2023-07-24T10:39:38;98874.50;;;33.62;30.41
21863;BME280;11096;51.338;12.524;2023-07-24T10:42:07;98875.28;;;32.85;31.60
21863;BME280;11096;51.338;12.524;2023-07-24T10:44:32;98867.00;;;35.19;29.08
21863;BME280;11096;51.338;12.524;2023-07-24T10:46:57;98857.81;;;36.57;27.81
21863;BME280;11096;51.338;12.524;2023-07-24T10:49:23;98863.84;;;34.98;29.41
21863;BME280;11096;51.338;12.524;2023-07-24T10:51:57;98868.41;;;35.30;28.61
21863;BME280;11096;51.338;12.524;2023-07-24T10:54:23;98856.03;;;34.31;29.42
21863;BME280;11096;51.338;12.524;2023-07-24T10:56:49;98847.63;;;34.84;29.28
21863;BME280;11096;51.338;12.524;2023-07-24T10:59:14;98847.66;;;33.51;30.14
21863;BME280;11096;51.338;12.524;2023-07-24T11:01:40;98847.38;;;32.76;31.36
21863;BME280;11096;51.338;12.524;2023-07-24T11:04:06;98843.13;;;32.35;31.96
21863;BME280;11096;51.338;12.524;2023-07-24T11:06:32;98834.06;;;32.60;32.16
21863;BME280;11096;51.338;12.524;2023-07-24T11:08:59;98825.63;;;32.38;32.14
21863;BME280;11096;51.338;12.524;2023-07-24T11:11:32;98823.13;;;32.46;32.34
21863;BME280;11096;51.338;12.524;2023-07-24T11:13:58;98813.59;;;32.64;31.94
21863;BME280;11096;51.338;12.524;2023-07-24T11:16:23;98808.06;;;32.80;31.94
21863;BME280;11096;51.338;12.524;2023-07-24T11:18:50;98815.50;;;32.88;31.71
21863;BME280;11096;51.338;12.524;2023-07-24T11:21:17;98812.47;;;33.24;31.11
21863;BME280;11096;51.338;12.524;2023-07-24T11:23:50;98813.59;;;32.93;31.42
21863;BME280;11096;51.338;12.524;2023-07-24T11:26:19;98815.72;;;32.67;32.00
21863;BME280;11096;51.338;12.524;2023-07-24T11:28:45;98818.19;;;32.88;31.58
21863;BME280;11096;51.338;12.524;2023-07-24T11:31:10;98828.75;;;32.84;31.76
21863;BME280;11096;51.338;12.524;2023-07-24T11:33:37;98818.03;;;32.50;31.60
21863;BME280;11096;51.338;12.524;2023-07-24T11:36:03;98818.16;;;31.95;32.79
21863;BME280;11096;51.338;12.524;2023-07-24T11:38:29;98820.53;;;32.36;32.10
21863;BME280;11096;51.338;12.524;2023-07-24T11:40:54;98810.28;;;32.04;33.16
21863;BME280;11096;51.338;12.524;2023-07-24T11:43:22;98805.59;;;32.83;31.94
21863;BME280;11096;51.338;12.524;2023-07-24T11:45:49;98803.91;;;31.90;32.78
21863;BME280;11096;51.338;12.524;2023-07-24T11:48:18;98811.47;;;31.87;32.78
21863;BME280;11096;51.338;12.524;2023-07-24T11:50:52;98810.59;;;32.02;33.04
21863;BME280;11096;51.338;12.524;2023-07-24T11:53:27;98802.97;;;32.44;31.94
21863;BME280;11096;51.338;12.524;2023-07-24T11:55:58;98793.19;;;32.24;32.49
21863;BME280;11096;51.338;12.524;2023-07-24T11:58:27;98794.84;;;31.80;32.88
21863;BME280;11096;51.338;12.524;2023-07-24T12:00:53;98784.06;;;31.85;32.99
21863;BME280;11096;51.338;12.524;2023-07-24T12:03:20;98783.66;;;32.42;31.06
21863;BME280;11096;51.338;12.524;2023-07-24T12:05:46;98782.31;;;32.74;31.19
21863;BME280;11096;51.338;12.524;2023-07-24T12:08:12;98774.31;;;33.97;29.99
21863;BME280;11096;51.338;12.524;2023-07-24T12:10:39;98786.75;;;33.93;29.88
21863;BME280;11096;51.338;12.524;2023-07-24T12:13:06;98789.59;;;32.97;31.43
21863;BME280;11096;51.338;12.524;2023-07-24T12:15:32;98783.47;;;33.96;31.03
21863;BME280;11096;51.338;12.524;2023-07-24T12:18:01;98783.66;;;34.71;29.74
21863;BME280;11096;51.338;12.524;2023-07-24T12:20:27;98781.72;;;34.06;30.29
21863;BME280;11096;51.338;12.524;2023-07-24T12:22:52;98779.53;;;34.27;29.60
21863;BME280;11096;51.338;12.524;2023-07-24T12:25:19;98763.28;;;34.32;29.22
21863;BME280;11096;51.338;12.524;2023-07-24T12:27:45;98745.16;;;34.65;28.99
21863;BME280;11096;51.338;12.524;2023-07-24T12:30:11;98732.69;;;35.61;27.52
21863;BME280;11096;51.338;12.524;2023-07-24T12:32:36;98743.06;;;34.90;28.79
21863;BME280;11096;51.338;12.524;2023-07-24T12:35:02;98753.16;;;34.24;29.78
21863;BME280;11096;51.338;12.524;2023-07-24T12:37:27;98744.31;;;33.66;30.25
21863;BME280;11096;51.338;12.524;2023-07-24T12:39:53;98763.56;;;33.17;30.35
21863;BME280;11096;51.338;12.524;2023-07-24T12:42:19;98749.34;;;32.87;31.41
21863;BME280;11096;51.338;12.524;2023-07-24T12:44:44;98741.03;;;33.69;30.09
21863;BME280;11096;51.338;12.524;2023-07-24T12:47:11;98750.66;;;33.94;30.22
21863;BME280;11096;51.338;12.524;2023-07-24T12:49:37;98729.47;;;34.53;29.92
21863;BME280;11096;51.338;12.524;2023-07-24T12:52:03;98716.50;;;36.28;27.94
21863;BME280;11096;51.338;12.524;2023-07-24T12:54:28;98712.47;;;35.58;27.66
21863;BME280;11096;51.338;12.524;2023-07-24T12:56:54;98706.56;;;35.06;28.89
21863;BME280;11096;51.338;12.524;2023-07-24T12:59:19;98696.78;;;35.83;27.86
21863;BME280;11096;51.338;12.524;2023-07-24T13:01:45;98719.13;;;33.76;30.06
21863;BME280;11096;51.338;12.524;2023-07-24T13:04:11;98722.75;;;32.61;33.47